Time;durP1;ratioP1;P1;durP2;ratioP2;P2;SDS_P1;SDS_P2;PMS_P1;PMS_P2;Temp;Humidity;BMP_temperature;BMP_pressure;BME280_temperature;BME280_humidity;BME280_pressure;Samples;Min_cycle;Max_cycle;Signal;HPM_P1;HPM_P2
2022/11/12 00:01:46;;;;;;;7.75;3.58;;;;;;;22.08;53.94;100397.25;4197649;28;20044;-68
2022/11/12 00:03:48;;;;;;;8.68;4.47;;;;;;;22.04;54.08;100379.53;4197490;28;20090;-68
2022/11/12 00:05:50;;;;;;;8.60;3.75;;;;;;;22.07;53.85;100385.28;4197070;28;20036;-68
2022/11/12 00:07:54;;;;;;;5.55;3.20;;;;;;;22.05;53.91;100375.59;4197244;28;20041;-68
2022/11/12 00:09:55;;;;;;;8.48;3.70;;;;;;;21.98;54.20;100370.38;4197366;28;20040;-68
2022/11/12 00:11:56;;;;;;;7.20;3.60;;;;;;;22.08;53.88;100363.81;4197197;28;20028;-68
2022/11/12 00:13:58;;;;;;;6.72;3.55;;;;;;;22.09;53.86;100362.72;4199411;28;20488;-68
2022/11/12 00:16:02;;;;;;;9.75;4.55;;;;;;;22.08;53.86;100361.91;4200452;28;20442;-68
2022/11/12 00:18:06;;;;;;;7.67;3.73;;;;;;;22.10;53.93;100355.19;4200673;28;20448;-68
2022/11/12 00:20:08;;;;;;;7.38;3.78;;;;;;;22.11;53.78;100352.09;4200563;28;20036;-67
2022/11/12 00:22:12;;;;;;;8.93;3.63;;;;;;;22.11;53.97;100351.25;4200592;28;20110;-68
2022/11/12 00:24:14;;;;;;;6.75;3.65;;;;;;;22.10;53.87;100349.59;4200172;28;20484;-68
2022/11/12 00:26:15;;;;;;;6.22;3.17;;;;;;;22.12;53.76;100345.41;4199835;28;20513;-69
2022/11/12 00:28:16;;;;;;;7.63;3.60;;;;;;;22.12;53.69;100348.19;4200013;28;20468;-67
2022/11/12 00:30:17;;;;;;;7.28;3.53;;;;;;;22.11;54.21;100348.47;4200335;28;20041;-67
2022/11/12 00:32:19;;;;;;;10.77;3.70;;;;;;;22.05;53.68;100329.06;4200409;28;20041;-67
2022/11/12 00:34:21;;;;;;;8.27;3.75;;;;;;;22.11;53.85;100335.38;4200089;28;20040;-69
2022/11/12 00:36:22;;;;;;;7.63;3.28;;;;;;;22.12;53.56;100328.69;4199849;28;20091;-69
2022/11/12 00:38:23;;;;;;;7.32;3.45;;;;;;;22.13;53.91;100335.94;4199956;28;20415;-67
2022/11/12 00:40:25;;;;;;;8.93;3.90;;;;;;;22.14;53.24;100328.41;4199873;28;20484;-67
2022/11/12 00:42:26;;;;;;;6.15;3.15;;;;;;;22.14;53.61;100323.66;4214924;28;20572;-67
2022/11/12 00:44:28;;;;;;;7.32;3.30;;;;;;;22.15;53.77;100314.16;4199689;28;20044;-67
2022/11/12 00:46:29;;;;;;;6.30;3.00;;;;;;;22.16;53.78;100320.56;4200044;28;20090;-69
2022/11/12 00:48:31;;;;;;;6.47;3.13;;;;;;;22.15;54.03;100316.13;4200287;28;20036;-69
2022/11/12 00:50:40;;;;;;;9.15;3.55;;;;;;;22.11;53.63;100296.34;4200048;28;20040;-69
2022/11/12 00:52:42;;;;;;;7.78;3.20;;;;;;;22.16;53.50;100304.66;4199759;28;20032;-68
2022/11/12 00:54:46;;;;;;;6.65;3.30;;;;;;;22.11;53.59;100293.56;4199790;28;20066;-69
2022/11/12 00:56:47;;;;;;;7.25;2.92;;;;;;;22.12;53.50;100286.88;4199180;28;20036;-68
2022/11/12 00:58:49;;;;;;;7.00;3.03;;;;;;;22.14;53.65;100286.59;4200103;28;20102;-69
2022/11/12 01:00:52;;;;;;;7.15;3.45;;;;;;;22.16;53.44;100276.78;4200159;28;20094;-69
2022/11/12 01:02:54;;;;;;;7.18;3.20;;;;;;;22.16;53.71;100267.59;4199750;28;20098;-69
2022/11/12 01:04:58;;;;;;;6.18;3.20;;;;;;;22.15;53.92;100277.09;4199929;28;20048;-68
2022/11/12 01:07:00;;;;;;;6.97;3.10;;;;;;;22.15;53.83;100266.78;4199695;28;20037;-68
2022/11/12 01:09:04;;;;;;;7.93;3.35;;;;;;;22.10;53.70;100263.22;4199855;28;20102;-69
2022/11/12 01:11:13;;;;;;;4.22;2.95;;;;;;;22.16;53.84;100267.59;4199489;28;20037;-69
2022/11/12 01:13:14;;;;;;;7.20;2.97;;;;;;;22.15;53.95;100264.00;4199959;28;20036;-68
2022/11/12 01:15:16;;;;;;;6.28;3.28;;;;;;;22.18;54.01;100259.78;4199449;28;20037;-69
2022/11/12 01:17:17;;;;;;;7.90;3.17;;;;;;;22.16;53.82;100248.09;4199336;28;20110;-69
2022/11/12 01:19:18;;;;;;;5.72;2.70;;;;;;;22.17;53.63;100239.44;4199705;28;20040;-68
2022/11/12 01:21:23;;;;;;;6.53;3.42;;;;;;;22.04;53.83;100220.72;4199231;28;20467;-68
2022/11/12 01:23:24;;;;;;;7.53;3.38;;;;;;;22.17;54.06;100245.00;4199055;28;20041;-69
2022/11/12 01:25:31;;;;;;;6.28;2.60;;;;;;;22.04;53.94;100217.94;4199378;28;20484;-68
2022/11/12 01:27:33;;;;;;;6.88;2.70;;;;;;;21.94;53.91;100195.78;4199425;28;20113;-68
2022/11/12 01:29:36;;;;;;;5.85;2.60;;;;;;;22.16;53.87;100226.63;4199879;28;20045;-68
2022/11/12 01:31:38;;;;;;;6.10;3.00;;;;;;;22.16;53.76;100232.19;4199125;28;20449;-69
2022/11/12 01:33:47;;;;;;;6.28;3.05;;;;;;;22.15;53.81;100230.56;4199276;28;20032;-68
2022/11/12 01:35:48;;;;;;;8.27;3.22;;;;;;;22.13;53.67;100227.25;4199679;28;20071;-68
2022/11/12 01:37:50;;;;;;;6.90;3.08;;;;;;;22.15;54.12;100230.56;4199122;28;20101;-68
2022/11/12 01:39:51;;;;;;;4.90;2.78;;;;;;;22.16;53.89;100232.19;4199423;28;20041;-69
2022/11/12 01:41:52;;;;;;;6.78;2.72;;;;;;;22.10;53.96;100222.25;4198945;28;20032;-68
2022/11/12 01:44:21;;;;;;;5.65;2.92;;;;;;;22.13;54.02;100241.19;4199254;28;20094;-68
2022/11/12 01:46:27;;;;;;;5.05;2.88;;;;;;;22.17;53.90;100245.00;4197704;28;20071;-68
2022/11/12 01:48:36;;;;;;;5.78;2.92;;;;;;;22.19;53.81;100247.50;4199230;28;20102;-68
2022/11/12 01:50:39;;;;;;;6.65;3.15;;;;;;;22.18;53.81;100241.09;4199217;28;20040;-68
2022/11/12 01:52:56;;;;;;;6.43;2.78;;;;;;;22.13;53.69;100234.78;4199098;28;20430;-68
2022/11/12 01:55:04;;;;;;;5.03;3.10;;;;;;;22.20;53.76;100249.16;4199088;28;20101;-70
2022/11/12 01:57:14;;;;;;;5.57;2.42;;;;;;;22.19;54.09;100248.31;4198831;28;20044;-68
2022/11/12 01:59:24;;;;;;;6.28;3.15;;;;;;;22.20;53.75;100238.00;4199166;28;20105;-68
2022/11/12 02:01:28;;;;;;;6.35;3.17;;;;;;;22.21;53.52;100248.84;4199057;28;20052;-68
2022/11/12 02:03:31;;;;;;;5.20;2.57;;;;;;;22.21;53.69;100246.03;4198631;28;20037;-69
2022/11/12 02:05:36;;;;;;;6.97;3.20;;;;;;;22.13;53.91;100229.19;4198690;28;20033;-69
2022/11/12 02:07:43;;;;;;;6.93;2.75;;;;;;;22.23;53.74;100234.59;4198833;28;20041;-68
2022/11/12 02:09:44;;;;;;;8.00;3.03;;;;;;;22.23;53.69;100234.59;4198773;28;20037;-68
2022/11/12 02:11:45;;;;;;;5.63;3.15;;;;;;;22.20;53.61;100227.69;4198770;28;20434;-69
2022/11/12 02:14:02;;;;;;;5.97;2.70;;;;;;;22.23;54.07;100227.06;4198430;28;20430;-68
2022/11/12 02:16:05;;;;;;;5.45;2.50;;;;;;;22.22;53.83;100224.56;4198307;28;20040;-68
2022/11/12 02:18:07;;;;;;;5.93;2.88;;;;;;;22.22;53.69;100213.41;4197232;28;20117;-68
2022/11/12 02:20:10;;;;;;;5.80;2.30;;;;;;;22.22;53.75;100219.84;4198516;28;20098;-68
2022/11/12 02:22:12;;;;;;;4.65;2.33;;;;;;;22.23;54.07;100217.88;4198623;28;20484;-68
2022/11/12 02:24:13;;;;;;;5.38;2.88;;;;;;;22.23;54.30;100215.94;4198435;28;20066;-68
2022/11/12 02:26:14;;;;;;;5.70;2.45;;;;;;;22.22;53.89;100207.84;4198017;28;20025;-68
2022/11/12 02:28:16;;;;;;;7.57;2.63;;;;;;;22.21;53.88;100201.44;4203763;28;20368;-68
2022/11/12 02:30:44;;;;;;;4.28;2.70;;;;;;;22.18;54.01;100199.31;4214713;28;20124;-69
2022/11/12 02:32:46;;;;;;;6.10;2.58;;;;;;;22.23;53.71;100196.41;4203916;28;20441;-68
2022/11/12 02:34:47;;;;;;;7.95;3.08;;;;;;;22.24;53.68;100208.38;4214857;28;20093;-68
2022/11/12 02:36:48;;;;;;;5.47;2.50;;;;;;;22.22;53.77;100200.34;4213598;28;20097;-68
2022/11/12 02:38:50;;;;;;;7.35;2.90;;;;;;;22.26;53.66;100197.75;4215225;28;20036;-68
2022/11/12 02:40:51;;;;;;;9.13;2.90;;;;;;;22.25;53.97;100196.91;4215086;28;20105;-68
2022/11/12 02:42:55;;;;;;;6.95;3.05;;;;;;;22.24;54.00;100189.69;4215042;28;20089;-68
2022/11/12 02:44:56;;;;;;;7.60;2.38;;;;;;;22.23;54.24;100179.69;4214463;28;20056;-68
2022/11/12 02:46:57;;;;;;;5.60;2.58;;;;;;;22.25;54.14;100180.19;4207860;28;20548;-70
2022/11/12 02:48:59;;;;;;;7.35;2.78;;;;;;;22.26;54.17;100187.41;4214867;28;20047;-69
2022/11/12 02:51:00;;;;;;;7.47;3.03;;;;;;;22.26;54.00;100189.38;4211873;28;20105;-72
2022/11/12 02:53:01;;;;;;;8.30;2.67;;;;;;;22.25;54.28;100185.78;4208363;28;20384;-69
2022/11/12 02:55:07;;;;;;;6.90;2.30;;;;;;;22.20;54.04;100176.69;4216978;27;20110;-70
2022/11/12 02:57:11;;;;;;;7.78;3.03;;;;;;;22.24;54.44;100178.56;4207631;28;20101;-69
2022/11/12 02:59:15;;;;;;;7.97;2.85;;;;;;;22.17;54.72;100155.00;4222026;28;20100;-70
2022/11/12 03:01:16;;;;;;;7.35;2.72;;;;;;;22.16;55.10;100170.91;4212807;28;20089;-69
2022/11/12 03:03:17;;;;;;;8.63;3.05;;;;;;;22.18;55.09;100157.50;4214009;28;20043;-69
2022/11/12 03:05:21;;;;;;;5.82;2.80;;;;;;;22.21;54.91;100156.03;4214242;28;20085;-69
2022/11/12 03:07:22;;;;;;;7.72;2.65;;;;;;;22.22;55.18;100152.97;4211948;28;20085;-69
2022/11/12 03:09:23;;;;;;;5.60;2.30;;;;;;;22.15;55.00;100146.97;4224556;28;20089;-69
2022/11/12 03:11:26;;;;;;;8.07;2.63;;;;;;;22.19;54.92;100131.28;4211343;28;20036;-70
2022/11/12 03:13:35;;;;;;;6.97;2.72;;;;;;;22.15;55.19;100130.25;4211697;28;20040;-70
2022/11/12 03:15:37;;;;;;;7.85;2.63;;;;;;;22.24;55.09;100133.97;4215788;28;20047;-70
2022/11/12 03:17:40;;;;;;;9.43;2.92;;;;;;;22.26;55.32;100128.88;4210835;28;20065;-70
2022/11/12 03:19:42;;;;;;;7.82;3.08;;;;;;;22.27;55.19;100126.97;4214207;28;20589;-69
2022/11/12 03:21:43;;;;;;;9.13;3.00;;;;;;;22.26;54.79;100128.88;4212732;28;20028;-70
2022/11/12 03:23:44;;;;;;;8.50;3.05;;;;;;;22.26;54.94;100130.84;4207986;28;20421;-70
2022/11/12 03:25:45;;;;;;;6.55;2.20;;;;;;;22.26;54.95;100131.69;4197781;28;20048;-68
2022/11/12 03:27:47;;;;;;;7.80;2.58;;;;;;;22.25;54.72;100129.22;4215061;28;20137;-70
2022/11/12 03:29:48;;;;;;;8.55;3.00;;;;;;;22.25;54.79;100134.78;4214449;28;20028;-71
2022/11/12 03:31:49;;;;;;;5.88;2.67;;;;;;;22.27;54.96;100133.34;4213173;28;20040;-71
2022/11/12 03:33:50;;;;;;;8.70;2.72;;;;;;;22.25;54.76;100113.31;4215496;28;20036;-70
2022/11/12 03:35:54;;;;;;;7.55;2.63;;;;;;;22.27;54.82;100116.63;4213123;28;20032;-70
2022/11/12 03:37:56;;;;;;;9.48;3.33;;;;;;;22.28;55.00;100097.94;4213954;28;20044;-70
2022/11/12 03:39:57;;;;;;;7.10;2.15;;;;;;;22.28;54.86;100109.91;4216961;28;20482;-70
2022/11/12 03:41:58;;;;;;;6.05;2.55;;;;;;;22.07;54.57;100066.84;4210619;28;20046;-70
2022/11/12 03:43:59;;;;;;;5.82;2.33;;;;;;;22.25;54.81;100104.94;4213896;28;20043;-70
2022/11/12 03:46:04;;;;;;;7.55;2.50;;;;;;;22.28;54.67;100092.38;4212350;28;20057;-71
2022/11/12 03:48:08;;;;;;;5.70;2.30;;;;;;;22.25;54.88;100091.00;4219132;28;20044;-70
2022/11/12 03:50:10;;;;;;;7.93;2.97;;;;;;;22.14;54.63;100074.84;4222984;28;20548;-72
2022/11/12 03:52:11;;;;;;;9.85;3.25;;;;;;;22.28;54.46;100101.56;4215399;28;20044;-71
2022/11/12 03:54:12;;;;;;;10.38;2.85;;;;;;;22.27;54.68;100082.38;4217470;28;20487;-69
2022/11/12 03:56:14;;;;;;;7.70;2.75;;;;;;;22.30;54.65;100082.53;4216859;28;20047;-70
2022/11/12 03:58:15;;;;;;;4.65;2.60;;;;;;;22.28;54.62;100079.25;4219591;28;20089;-70
2022/11/12 04:00:18;;;;;;;6.00;2.80;;;;;;;22.28;54.39;100068.09;4221833;28;20024;-72
2022/11/12 04:02:19;;;;;;;6.13;2.25;;;;;;;22.28;54.74;100070.91;4217152;28;20560;-72
2022/11/12 04:04:20;;;;;;;6.95;2.75;;;;;;;22.27;54.75;100072.03;4216994;28;20040;-72
2022/11/12 04:08:41;;;;;;;7.30;3.10;;;;;;;22.30;54.33;100070.56;4217132;28;20077;-73
2022/11/12 04:10:43;;;;;;;8.27;2.70;;;;;;;22.28;54.58;100078.44;4215740;28;20117;-72
2022/11/12 04:15:10;;;;;;;8.15;2.80;;;;;;;22.29;55.12;100080.91;4216859;28;20077;-72
2022/11/12 04:22:06;;;;;;;11.60;3.08;;;;;;;22.25;54.52;100045.59;4217540;28;20426;-71
2022/11/12 04:24:07;;;;;;;8.43;3.00;;;;;;;21.82;54.49;99971.53;4216506;28;20040;-71
2022/11/12 04:26:23;;;;;;;7.50;2.50;;;;;;;22.24;54.69;100039.22;4216369;28;20483;-72
2022/11/12 04:28:24;;;;;;;7.90;2.83;;;;;;;22.19;54.72;100021.78;4214918;28;20085;-72
2022/11/12 04:30:26;;;;;;;8.95;2.78;;;;;;;22.17;54.56;100021.25;4217192;28;20082;-72
2022/11/12 04:32:28;;;;;;;8.30;2.50;;;;;;;22.22;54.69;100021.13;4217056;28;20422;-71
2022/11/12 04:34:30;;;;;;;8.55;2.88;;;;;;;22.23;54.53;100020.84;4207373;28;20602;-72
2022/11/12 04:36:31;;;;;;;9.88;2.70;;;;;;;22.21;54.67;100011.94;4213528;28;20113;-71
2022/11/12 04:38:32;;;;;;;9.13;2.60;;;;;;;21.57;54.70;99902.44;4216252;28;20360;-73
2022/11/12 04:45:13;;;;;;;5.30;2.10;;;;;;;22.23;54.50;100004.13;4217190;28;20085;-72
2022/11/12 04:47:14;;;;;;;5.95;2.38;;;;;;;22.22;54.59;99996.91;4216479;28;20467;-71
2022/11/12 04:49:15;;;;;;;6.43;2.72;;;;;;;22.22;54.60;99991.34;4216625;28;20044;-71
2022/11/12 04:53:36;;;;;;;6.15;2.38;;;;;;;22.24;54.37;99988.22;4204901;28;20089;-71
2022/11/12 04:55:37;;;;;;;7.45;3.03;;;;;;;22.21;54.64;99970.16;4215152;28;20024;-71
2022/11/12 04:57:39;;;;;;;6.55;2.70;;;;;;;22.23;54.44;99969.88;4216625;28;20109;-71
2022/11/12 04:59:43;;;;;;;8.43;2.45;;;;;;;22.16;54.60;99964.69;4216037;28;20524;-71
2022/11/12 05:01:44;;;;;;;5.83;2.53;;;;;;;22.22;54.36;99963.47;4216544;28;20040;-71
2022/11/12 05:03:45;;;;;;;6.80;2.33;;;;;;;22.23;54.50;99955.94;4216432;28;20082;-71
2022/11/12 05:05:47;;;;;;;8.57;3.00;;;;;;;22.22;54.62;99941.19;4216002;28;20040;-71
2022/11/12 05:07:48;;;;;;;5.38;2.50;;;;;;;22.21;54.37;99941.47;4216348;28;20097;-71
2022/11/12 05:09:49;;;;;;;8.85;2.47;;;;;;;22.18;54.74;99934.56;4216525;28;20461;-71
2022/11/12 05:11:55;;;;;;;6.85;2.25;;;;;;;21.99;54.62;99887.34;4216134;28;20147;-71
2022/11/12 05:13:57;;;;;;;7.18;3.45;;;;;;;22.17;54.42;99916.19;4216568;28;20503;-72
2022/11/12 05:15:58;;;;;;;6.65;2.33;;;;;;;22.20;54.50;99923.94;4215822;28;20032;-71
2022/11/12 05:17:59;;;;;;;9.98;2.10;;;;;;;22.16;54.66;99897.81;4215083;28;20368;-71
2022/11/12 05:20:00;;;;;;;5.53;2.13;;;;;;;22.22;54.39;99906.88;4215997;28;20479;-71
2022/11/12 05:22:04;;;;;;;7.00;2.50;;;;;;;22.21;54.65;99894.91;4216437;28;20316;-71
2022/11/12 05:24:09;;;;;;;9.68;2.13;;;;;;;22.20;54.55;99882.13;4216401;28;20041;-71
2022/11/12 05:26:13;;;;;;;7.28;2.63;;;;;;;22.06;54.89;99856.25;4210531;28;20041;-71
2022/11/12 05:28:14;;;;;;;5.45;2.35;;;;;;;22.21;54.38;99880.97;4215727;28;20032;-71
2022/11/12 05:30:18;;;;;;;6.97;2.42;;;;;;;22.21;54.68;99880.97;4215763;28;20040;-71
2022/11/12 05:32:19;;;;;;;7.68;2.55;;;;;;;22.21;54.41;99872.63;4216035;28;20467;-71
2022/11/12 05:34:21;;;;;;;6.05;2.42;;;;;;;22.23;54.61;99867.56;4215512;28;20052;-70
2022/11/12 05:36:23;;;;;;;4.95;2.08;;;;;;;22.21;54.62;99869.84;4214783;28;20052;-70
2022/11/12 05:38:28;;;;;;;7.57;2.40;;;;;;;22.17;54.76;99843.75;4202434;28;20036;-71
2022/11/12 05:40:32;;;;;;;6.00;2.63;;;;;;;22.22;54.72;99846.44;4198512;28;20487;-71
2022/11/12 05:42:33;;;;;;;6.85;3.03;;;;;;;22.22;54.55;99852.00;4198937;28;20036;-71
2022/11/12 05:44:34;;;;;;;6.35;2.58;;;;;;;22.22;54.48;99840.84;4199108;28;20037;-72
2022/11/12 05:46:35;;;;;;;8.25;3.10;;;;;;;22.19;54.74;99833.13;4198805;28;20086;-71
2022/11/12 05:48:37;;;;;;;6.00;2.25;;;;;;;22.22;54.56;99829.72;4199242;28;20037;-71
2022/11/12 05:50:38;;;;;;;6.72;2.70;;;;;;;22.21;54.68;99830.81;4211247;28;20032;-71
2022/11/12 05:52:48;;;;;;;6.13;2.38;;;;;;;22.23;54.60;99814.63;4214663;28;20101;-71
2022/11/12 05:54:58;;;;;;;6.05;2.38;;;;;;;22.22;54.47;99818.56;4215205;28;20106;-71
2022/11/12 05:57:00;;;;;;;7.28;2.17;;;;;;;22.18;54.66;99795.25;4214494;28;20105;-71
2022/11/12 05:59:03;;;;;;;8.02;2.30;;;;;;;22.21;54.49;99793.78;4214623;28;20093;-71
2022/11/12 06:01:04;;;;;;;8.88;2.35;;;;;;;22.21;54.73;99794.59;4213654;28;20097;-71
2022/11/12 06:03:07;;;;;;;6.40;2.38;;;;;;;22.24;54.69;99782.81;4215309;28;20479;-71
2022/11/12 06:05:08;;;;;;;10.38;2.97;;;;;;;22.23;54.85;99781.19;4215687;28;20039;-71
2022/11/12 06:07:09;;;;;;;7.43;2.35;;;;;;;22.23;54.83;99781.19;4215401;28;20548;-72
2022/11/12 06:09:11;;;;;;;6.88;2.90;;;;;;;22.23;54.48;99775.63;4213440;28;20044;-71
2022/11/12 06:11:12;;;;;;;6.63;2.78;;;;;;;22.23;54.87;99763.66;4215169;28;20032;-71
2022/11/12 06:13:13;;;;;;;8.25;2.92;;;;;;;22.23;54.68;99753.31;4215158;28;20035;-72
2022/11/12 06:15:15;;;;;;;8.63;2.88;;;;;;;22.22;54.49;99760.03;4212030;28;20040;-72
2022/11/12 06:17:16;;;;;;;7.03;2.53;;;;;;;22.22;54.36;99751.69;4214083;28;20437;-71
2022/11/12 06:19:18;;;;;;;6.70;2.58;;;;;;;22.20;54.57;99745.59;4215221;28;20513;-72
2022/11/12 06:21:19;;;;;;;8.05;2.55;;;;;;;22.23;54.53;99753.31;4213326;28;20105;-71
2022/11/12 06:23:20;;;;;;;6.63;2.60;;;;;;;22.17;54.50;99735.06;4213606;28;20101;-71
2022/11/12 06:25:22;;;;;;;6.20;2.10;;;;;;;22.20;54.40;99736.41;4213460;28;20101;-73
2022/11/12 06:27:23;;;;;;;7.43;2.22;;;;;;;22.23;54.25;99731.03;4213441;28;20032;-71
2022/11/12 06:29:25;;;;;;;7.50;2.97;;;;;;;22.20;54.39;99725.25;4211031;28;20117;-71
2022/11/12 06:31:26;;;;;;;8.40;2.55;;;;;;;22.20;54.66;99714.13;4211191;28;20093;-72
2022/11/12 06:33:27;;;;;;;9.88;2.60;;;;;;;22.23;54.59;99719.06;4213265;28;20433;-72
2022/11/12 06:35:29;;;;;;;6.57;2.20;;;;;;;22.24;54.41;99718.75;4214176;28;20057;-71
2022/11/12 06:37:30;;;;;;;8.68;2.60;;;;;;;22.21;54.81;99704.63;4214304;28;20097;-72
2022/11/12 06:39:31;;;;;;;7.20;2.75;;;;;;;22.22;54.49;99701.53;4215073;28;20036;-72
2022/11/12 06:41:33;;;;;;;6.70;2.35;;;;;;;22.23;54.73;99697.59;4213691;28;20036;-72
2022/11/12 06:43:37;;;;;;;6.10;2.38;;;;;;;22.23;54.54;99703.16;4213821;28;20040;-71
2022/11/12 06:45:41;;;;;;;4.72;2.70;;;;;;;22.22;54.79;99687.59;4213460;28;20051;-72
2022/11/12 06:47:42;;;;;;;7.40;2.45;;;;;;;22.20;54.47;99678.72;4214234;28;20437;-71
2022/11/12 06:49:46;;;;;;;7.38;2.40;;;;;;;22.25;54.21;99686.13;4212807;28;20094;-71
2022/11/12 06:51:50;;;;;;;6.83;2.60;;;;;;;22.24;54.51;99676.94;4214494;28;20382;-71
2022/11/12 06:54:12;;;;;;;9.25;2.60;;;;;;;22.19;54.48;99657.56;4214789;28;20028;-72
2022/11/12 06:56:14;;;;;;;5.38;2.60;;;;;;;22.25;54.76;99661.84;4212577;28;20031;-72
2022/11/12 06:58:15;;;;;;;9.38;2.72;;;;;;;22.25;54.45;99673.00;4214969;28;20541;-72
2022/11/12 07:00:19;;;;;;;6.53;2.63;;;;;;;22.25;54.59;99664.63;4214231;28;20040;-72
2022/11/12 07:02:20;;;;;;;8.02;2.30;;;;;;;22.26;54.61;99662.66;4214189;28;20040;-71
2022/11/12 07:04:24;;;;;;;8.23;2.30;;;;;;;22.25;54.43;99656.28;4214494;28;20101;-72
2022/11/12 07:06:25;;;;;;;9.38;2.53;;;;;;;22.25;54.64;99656.28;4214473;28;20078;-71
2022/11/12 07:08:26;;;;;;;7.00;2.70;;;;;;;22.24;54.60;99648.25;4211971;28;20093;-71
2022/11/12 07:10:27;;;;;;;5.97;2.72;;;;;;;22.22;54.76;99640.22;4214498;28;20112;-71
2022/11/12 07:12:29;;;;;;;9.02;2.75;;;;;;;22.26;54.89;99646.78;4214652;28;20422;-72
2022/11/12 07:14:36;;;;;;;6.72;2.35;;;;;;;22.26;55.04;99643.16;4214174;28;20421;-71
2022/11/12 07:16:37;;;;;;;9.05;2.08;;;;;;;22.26;55.00;99640.38;4214111;28;20036;-72
2022/11/12 07:18:38;;;;;;;6.28;2.75;;;;;;;22.27;54.79;99642.06;4208192;28;20081;-72
2022/11/12 07:20:40;;;;;;;6.47;2.70;;;;;;;22.18;54.82;99616.94;4214378;28;20036;-72
2022/11/12 07:22:41;;;;;;;6.70;2.40;;;;;;;22.12;54.84;99609.84;4213770;28;20040;-72
2022/11/12 07:24:45;;;;;;;7.82;2.53;;;;;;;22.27;55.04;99630.91;4214570;28;20089;-72
2022/11/12 07:26:46;;;;;;;6.22;2.35;;;;;;;22.12;55.11;99593.13;4213368;28;20086;-72
2022/11/12 07:28:51;;;;;;;6.18;2.47;;;;;;;22.28;54.70;99621.38;4211906;28;20464;-72
2022/11/12 07:30:58;;;;;;;6.30;2.60;;;;;;;22.24;55.13;99604.50;4207203;28;20040;-71
2022/11/12 07:32:59;;;;;;;5.22;2.08;;;;;;;22.30;55.20;99607.94;4213397;28;20040;-70
2022/11/12 07:35:00;;;;;;;11.30;2.80;;;;;;;22.28;55.27;99604.66;4212331;28;20511;-71
2022/11/12 07:37:02;;;;;;;6.68;2.70;;;;;;;22.30;55.34;99605.97;4213624;28;20044;-69
2022/11/12 07:39:08;;;;;;;9.05;2.58;;;;;;;22.30;55.04;99607.94;4214427;28;20097;-70
2022/11/12 07:41:11;;;;;;;7.95;2.75;;;;;;;22.29;55.03;99598.75;4213843;28;20417;-70
2022/11/12 07:43:12;;;;;;;6.25;2.40;;;;;;;22.21;55.02;99588.41;4214613;28;20040;-70
2022/11/12 07:45:14;;;;;;;8.15;2.50;;;;;;;22.31;55.19;99601.22;4214549;28;20040;-70
2022/11/12 07:47:15;;;;;;;6.97;3.00;;;;;;;22.30;55.11;99607.94;4214866;28;20085;-70
2022/11/12 07:49:16;;;;;;;8.02;2.40;;;;;;;22.29;55.19;99604.34;4214257;28;20085;-71
2022/11/12 07:51:23;;;;;;;6.20;2.20;;;;;;;22.29;55.32;99601.56;4214019;28;20039;-70
2022/11/12 07:53:24;;;;;;;6.85;2.83;;;;;;;22.29;54.96;99598.75;4214260;28;20101;-70
2022/11/12 07:55:26;;;;;;;6.03;2.08;;;;;;;22.27;55.56;99595.50;4214420;28;20032;-70
2022/11/12 07:57:27;;;;;;;10.75;3.03;;;;;;;22.29;55.18;99595.97;4213972;28;20036;-70
2022/11/12 07:59:28;;;;;;;6.97;2.55;;;;;;;22.27;55.36;99601.06;4214174;28;20090;-72
2022/11/12 08:01:33;;;;;;;6.35;2.33;;;;;;;22.30;55.26;99603.19;4214004;28;20040;-70
2022/11/12 08:03:37;;;;;;;7.15;2.15;;;;;;;22.30;55.18;99596.78;4214075;28;20102;-70
2022/11/12 08:05:38;;;;;;;9.90;2.67;;;;;;;22.27;55.28;99587.13;4213958;28;20544;-70
2022/11/12 08:07:43;;;;;;;7.60;2.72;;;;;;;22.32;55.07;99589.78;4213190;28;20085;-70
2022/11/12 08:09:44;;;;;;;7.27;2.77;;;;;;;22.32;55.30;99595.34;4211680;28;20093;-70
2022/11/12 08:11:45;;;;;;;6.72;2.67;;;;;;;22.33;55.21;99585.81;4214263;28;20040;-70
2022/11/12 08:13:46;;;;;;;6.20;2.20;;;;;;;22.33;55.14;99583.03;4212703;28;20044;-70
2022/11/12 08:15:51;;;;;;;7.88;2.85;;;;;;;22.19;55.55;99554.47;4212955;28;20093;-72
2022/11/12 08:17:52;;;;;;;6.55;2.25;;;;;;;22.35;55.38;99581.91;4212567;28;20082;-70
2022/11/12 08:19:54;;;;;;;8.18;3.33;;;;;;;22.36;55.14;99577.97;4213929;28;20553;-70
2022/11/12 08:21:55;;;;;;;8.55;2.28;;;;;;;22.36;55.53;99572.38;4213003;28;20035;-70
2022/11/12 08:23:56;;;;;;;5.88;2.22;;;;;;;22.38;55.29;99568.13;4213127;28;20105;-70
2022/11/12 08:25:59;;;;;;;5.97;2.10;;;;;;;22.36;55.87;99572.38;4211797;28;20044;-70
2022/11/12 08:28:00;;;;;;;6.75;2.33;;;;;;;22.24;55.54;99548.75;4212873;28;20040;-70
2022/11/12 08:30:02;;;;;;;7.55;2.75;;;;;;;22.39;55.42;99568.97;4211596;28;20109;-70
2022/11/12 08:32:07;;;;;;;6.72;2.65;;;;;;;22.38;55.67;99570.09;4212628;28;20044;-69
2022/11/12 08:34:11;;;;;;;6.10;2.40;;;;;;;22.38;55.66;99559.78;4214931;28;20052;-70
2022/11/12 08:36:14;;;;;;;6.23;2.47;;;;;;;22.39;55.72;99555.03;4212495;28;20441;-70
2022/11/12 08:38:16;;;;;;;8.50;2.67;;;;;;;22.40;55.96;99559.44;4213720;28;20441;-72
2022/11/12 08:40:18;;;;;;;6.93;2.28;;;;;;;22.22;55.72;99528.75;4217107;28;20458;-70
2022/11/12 08:42:20;;;;;;;7.00;2.20;;;;;;;22.38;55.79;99545.84;4214966;28;20036;-70
2022/11/12 08:44:21;;;;;;;4.55;2.08;;;;;;;22.42;56.18;99548.81;4217097;28;20132;-70
2022/11/12 08:46:22;;;;;;;6.68;2.47;;;;;;;22.42;55.71;99548.81;4215417;28;20040;-70
2022/11/12 08:48:27;;;;;;;7.35;2.90;;;;;;;22.31;55.96;99520.41;4208005;28;20110;-70
2022/11/12 08:50:31;;;;;;;6.32;2.35;;;;;;;22.43;55.85;99533.72;4206512;28;20028;-70
2022/11/12 08:52:33;;;;;;;7.43;2.37;;;;;;;22.43;56.04;99534.53;4215942;28;20032;-71
2022/11/12 08:54:34;;;;;;;7.43;2.30;;;;;;;22.44;55.96;99540.94;4216584;28;20272;-70
2022/11/12 08:56:35;;;;;;;7.22;2.25;;;;;;;22.43;56.05;99534.53;4215190;28;20036;-70
2022/11/12 08:58:37;;;;;;;7.75;2.35;;;;;;;22.43;56.16;99536.50;4215664;28;20040;-70
2022/11/12 09:00:43;;;;;;;8.25;2.53;;;;;;;22.20;56.24;99497.59;4215507;28;20048;-70
2022/11/12 09:02:44;;;;;;;5.63;2.08;;;;;;;22.44;56.29;99533.38;4215311;28;20386;-70
2022/11/12 09:04:48;;;;;;;6.20;2.13;;;;;;;22.40;56.08;99524.03;4213701;28;20044;-69
2022/11/12 09:06:49;;;;;;;5.55;2.15;;;;;;;22.44;56.44;99524.19;4215059;28;20372;-69
2022/11/12 09:08:51;;;;;;;4.70;1.77;;;;;;;22.41;55.95;99525.69;4216629;28;20486;-69
2022/11/12 09:10:52;;;;;;;6.90;2.53;;;;;;;22.41;56.46;99519.31;4214527;28;20466;-70
2022/11/12 09:12:53;;;;;;;7.35;2.38;;;;;;;22.43;56.39;99523.38;4216060;28;20097;-70
2022/11/12 09:14:55;;;;;;;5.43;2.33;;;;;;;22.45;56.31;99526.69;4216044;28;20065;-70
2022/11/12 09:16:58;;;;;;;6.03;2.58;;;;;;;22.38;56.87;99511.56;4216119;28;20552;-71
2022/11/12 09:19:00;;;;;;;6.15;2.22;;;;;;;22.47;56.36;99518.00;4216048;28;20040;-71
2022/11/12 09:21:10;;;;;;;5.15;2.25;;;;;;;22.42;56.48;99520.94;4203618;28;20033;-70
2022/11/12 09:23:16;;;;;;;8.82;2.70;;;;;;;22.44;56.37;99529.78;4198893;28;20048;-70
2022/11/12 09:25:18;;;;;;;5.78;1.80;;;;;;;22.46;56.65;99528.31;4199403;28;20044;-71
2022/11/12 09:27:19;;;;;;;5.75;2.03;;;;;;;22.47;56.63;99529.97;4197629;28;20044;-71
2022/11/12 09:29:23;;;;;;;6.45;2.53;;;;;;;22.30;56.27;99505.66;4204459;28;20109;-70
2022/11/12 09:31:25;;;;;;;6.80;2.83;;;;;;;22.47;56.19;99529.97;4215576;28;20372;-71
2022/11/12 09:33:30;;;;;;;4.07;2.30;;;;;;;22.50;56.35;99536.88;4216208;28;20326;-70
2022/11/12 09:35:31;;;;;;;;;;;;;;;22.48;56.68;99539.13;4216383;28;20124;-71
2022/11/12 09:37:32;;;;;;;4.60;2.30;;;;;;;22.46;56.52;99519.16;4215802;28;20001;-71
2022/11/12 09:39:34;;;;;;;6.43;2.83;;;;;;;22.53;56.76;99550.13;4215665;28;20036;-71
2022/11/12 09:41:40;;;;;;;6.00;2.38;;;;;;;22.50;56.72;99556.38;4215957;28;20469;-71
2022/11/12 09:43:55;;;;;;;6.43;2.30;;;;;;;22.49;56.72;99565.84;4215891;28;20077;-71
2022/11/12 09:46:03;;;;;;;4.75;2.63;;;;;;;22.50;56.63;99562.78;4215056;28;20061;-71
2022/11/12 09:48:08;;;;;;;9.18;2.80;;;;;;;22.49;56.64;99549.94;4215728;28;20036;-71
2022/11/12 09:50:32;;;;;;;5.82;2.50;;;;;;;22.45;56.51;99542.56;4198364;28;20113;-71
2022/11/12 09:52:38;;;;;;;4.97;1.92;;;;;;;22.45;56.61;99543.41;4213435;28;20105;-71